Friendswood, TX

12:30 CDT le 30 Mars 2015 (GMT -0500)
Clover | | Change Station
CLOSE
Current Station
Aéroport
Location: Houston Clover,
Altitude: 43 ft
Stations météo à proximité

Alt. 43 ft 29.52 °N, 95.24 °W | Updated 37 minutes ago

Partiellement nuageux
Partiellement nuageux
78 ° F
Paraît 78 ° F
N
7
Vent Variable Vent de SSO

Aujourd'hui
Haut(e) -- | Bas -- ° F
--% Risque de précip.
Hier
Haut(e) -- | Bas -- ° F
Precip. -- pouce
7:13 AM 7:38 PM
Lune gibbeuse croissante, 81% visible
Pression 30.23 pouce
Visibilité 10.0 Miles terrestres
Nuages Peu 3100 ft
Nuages épars 4000 ft
Point de rosée 61 ° F
Humidité 56%
Précipitations 0.00 pouce
Profondeur de la couche neigeuse Non disponible.
UV 7 sur 12
Pollen 10.30 sur 12
Qualité de l'air Non disponible.
Flu Activity Non disponible.
METAR KLVJ 301653Z AUTO 20006KT 10SM FEW031 SCT040 26/16 A3023 RMK AO2 SLP235 T02560161

More Conditions Fewer Conditions

Pression 30.23 pouce
Visibilité 10.0 Miles terrestres
Nuages Peu 3100 ft
Nuages épars 4000 ft
Point de rosée 61 ° F
Humidité 56%
Précipitations 0.00 pouce
Profondeur de la couche neigeuse Non disponible.
UV 7 sur 12
Pollen 10.30 sur 12
Qualité de l'air Non disponible.
Flu Activity Non disponible.
METAR KLVJ 301653Z AUTO 20006KT 10SM FEW031 SCT040 26/16 A3023 RMK AO2 SLP235 T02560161

More Conditions Fewer Conditions

10-Day Weather Forecast

Almanac

Astronomie

Mar. 30, 2015 Lever Coucher
Temps réel
Crépuscule civil
Crépuscule nautique
Crépuscule astronomique
Lune
Durée de lumière visible
Longueur du jour
Tomorrow will be .
, % of the Moon is Illuminated

Extrêmes aujourd'hui

State Highs State Lows

Community

WunderPhotos

Upload Photos

1,809,545 Photos téléchargées !

WunderBlogs® & News

Nearby

Qualité de l'air

  Qualité de l'air Indice de la qualité de l'air Polluant
Not available.

Épaisseur de neige

Station Depth Altitude

Activité sismique

Ville Distance Mag. Time & Date
Minimum magnitude displayed is 2.5.

Températures des eaux côtières

Lieu Température

Stations

Stations météo à proximité

Emplacement de la station Température Refroidissement éolien Point de rosée Humidité Vent Precip. Alt. Mise à jour Type